Time;durP1;ratioP1;P1;durP2;ratioP2;P2;SDS_P1;SDS_P2;PMS_P1;PMS_P2;Temp;Humidity;BMP_temperature;BMP_pressure;BME280_temperature;BME280_humidity;BME280_pressure;Samples;Min_cycle;Max_cycle;Signal;HPM_P1;HPM_P2
2023/07/22 00:03:17;;;;;;;14.80;7.33;;;15.30;99.90;;;;;;4981161;28;20491;-84
2023/07/22 00:09:05;;;;;;;10.77;7.50;;;15.20;99.90;;;;;;4926990;28;20509;-84
2023/07/22 00:12:18;;;;;;;;;;;;;;;;;;;;;
2023/07/22 00:15:20;;;;;;;12.27;7.80;;;15.20;99.90;;;;;;4917659;29;20537;-84
2023/07/22 00:19:00;;;;;;;13.90;8.57;;;15.10;99.90;;;;;;4975556;23;20490;-84
2023/07/22 00:22:31;;;;;;;10.87;8.23;;;15.00;99.90;;;;;;4959650;28;20508;-84
2023/07/22 00:25:51;;;;;;;;;;;;;;;;;;;;;
2023/07/22 00:28:25;;;;;;;15.77;7.97;;;14.90;99.90;;;;;;4812981;29;20491;-84
2023/07/22 00:31:21;;;;;;;10.50;7.93;;;14.90;99.90;;;;;;4931267;29;20492;-84
2023/07/22 00:33:55;;;;;;;11.13;8.10;;;14.80;99.90;;;;;;4942978;29;20456;-83
2023/07/22 00:39:45;;;;;;;9.50;7.40;;;14.70;99.90;;;;;;4922357;29;20476;-84
2023/07/22 00:45:57;;;;;;;13.20;8.90;;;14.50;99.90;;;;;;4926561;29;20572;-83
2023/07/22 01:02:20;;;;;;;11.13;8.10;;;14.30;1.00;;;;;;4922956;29;20581;-84
2023/07/22 01:05:56;;;;;;;11.00;7.43;;;14.30;1.00;;;;;;4923933;29;20481;-84
2023/07/22 01:09:09;;;;;;;11.20;7.23;;;14.20;1.00;;;;;;4878520;29;20474;-84
2023/07/22 01:12:24;;;;;;;12.53;7.57;;;14.10;1.00;;;;;;4882223;29;20529;-84
2023/07/22 01:22:18;;;;;;;11.77;7.93;;;14.00;1.00;;;;;;4971036;28;20451;-84
2023/07/22 04:21:32;;;;;;;8.00;6.63;;;14.40;1.00;;;;;;4976836;28;20484;-84
2023/07/22 05:05:28;;;;;;;;;;;;;;;;;;;;;
2023/07/22 05:11:36;;;;;;;;;;;;;;;;;;;;;
2023/07/22 05:18:39;;;;;;;;;;;;;;;;;;;;;
2023/07/22 06:04:17;;;;;;;10.40;7.60;;;21.10;99.90;;;;;;4953734;28;20524;-85
2023/07/22 06:06:43;;;;;;;10.47;8.40;;;21.20;99.90;;;;;;4966120;28;20462;-85
2023/07/22 06:09:09;;;;;;;10.87;9.07;;;21.00;99.90;;;;;;4975009;28;20518;-85
2023/07/22 06:11:34;;;;;;;11.27;9.00;;;20.50;99.90;;;;;;4977389;28;20433;-83
2023/07/22 06:14:00;;;;;;;13.00;8.80;;;20.30;99.90;;;;;;4952945;28;20188;-83
2023/07/22 06:16:25;;;;;;;11.07;9.77;;;20.10;99.90;;;;;;4974220;28;20783;-83
2023/07/22 06:18:51;;;;;;;11.20;7.93;;;20.00;99.90;;;;;;4958778;28;20191;-85
2023/07/22 06:21:16;;;;;;;11.10;8.10;;;19.80;99.90;;;;;;4968144;28;20235;-83
2023/07/22 06:23:42;;;;;;;11.00;8.40;;;19.80;99.90;;;;;;4960341;28;20192;-84
2023/07/22 06:26:07;;;;;;;11.87;8.63;;;19.80;99.90;;;;;;4960719;28;20226;-84
2023/07/22 06:28:33;;;;;;;10.13;8.33;;;19.70;99.90;;;;;;4959864;28;20679;-84
2023/07/22 06:30:58;;;;;;;11.87;8.90;;;19.60;99.90;;;;;;4954429;28;20183;-84
2023/07/22 06:33:24;;;;;;;14.03;8.73;;;19.60;99.90;;;;;;4977095;28;20192;-84
2023/07/22 06:35:49;;;;;;;12.80;9.50;;;19.60;99.90;;;;;;4974192;28;20641;-83
2023/07/22 06:38:15;;;;;;;12.70;9.40;;;19.90;99.90;;;;;;4978024;28;20191;-83
2023/07/22 06:40:41;;;;;;;21.13;9.67;;;20.10;99.90;;;;;;4978598;28;20177;-83
2023/07/22 06:43:06;;;;;;;13.30;8.40;;;20.20;99.90;;;;;;4954738;28;20199;-83
2023/07/22 06:45:32;;;;;;;12.40;8.90;;;20.20;99.90;;;;;;4958106;28;20532;-83
2023/07/22 06:47:58;;;;;;;9.90;8.30;;;20.00;99.90;;;;;;4978745;28;21680;-84
2023/07/22 06:50:23;;;;;;;12.30;9.10;;;20.00;99.90;;;;;;4981521;28;20437;-84
2023/07/22 06:52:49;;;;;;;15.37;9.23;;;20.30;99.90;;;;;;4981792;28;20182;-84
2023/07/22 06:55:15;;;;;;;14.93;8.30;;;20.70;99.90;;;;;;4980921;28;20632;-84
2023/07/22 06:57:40;;;;;;;13.13;9.70;;;21.10;99.90;;;;;;4964197;28;20263;-85
2023/07/22 07:00:06;;;;;;;10.87;8.97;;;21.80;99.90;;;;;;4980244;28;20283;-84
2023/07/22 07:02:32;;;;;;;11.07;8.50;;;22.00;99.90;;;;;;4975287;28;20193;-85
2023/07/22 07:04:57;;;;;;;13.00;8.90;;;22.50;99.90;;;;;;4961906;28;20442;-85
2023/07/22 07:07:23;;;;;;;11.03;9.43;;;22.40;99.90;;;;;;4979663;28;20205;-84
2023/07/22 07:09:49;;;;;;;10.50;8.67;;;22.00;99.90;;;;;;4963426;28;20222;-85
2023/07/22 07:12:14;;;;;;;14.13;8.00;;;21.70;99.90;;;;;;4964222;28;20198;-84
2023/07/22 07:14:41;;;;;;;14.83;7.23;;;21.60;99.90;;;;;;4978320;28;20187;-84
2023/07/22 07:17:06;;;;;;;10.33;9.07;;;21.50;99.90;;;;;;4962337;28;20599;-84
2023/07/22 07:19:32;;;;;;;14.83;8.83;;;21.60;99.90;;;;;;4976836;28;20522;-85
2023/07/22 07:21:57;;;;;;;13.70;8.50;;;21.90;99.90;;;;;;4960332;28;20220;-85
2023/07/22 07:24:23;;;;;;;10.90;7.97;;;22.30;99.90;;;;;;4960236;28;20627;-84
2023/07/22 07:26:48;;;;;;;11.10;8.20;;;22.70;99.90;;;;;;4977663;28;20244;-83
2023/07/22 07:29:17;;;;;;;7.87;7.10;;;23.20;99.90;;;;;;4959655;28;20219;-84
2023/07/22 07:31:42;;;;;;;20.80;8.43;;;24.80;99.90;;;;;;4957844;28;20180;-84
2023/07/22 07:34:10;;;;;;;10.27;7.90;;;25.30;99.90;;;;;;4951087;28;20443;-84
2023/07/22 07:36:36;;;;;;;9.30;7.10;;;25.40;99.90;;;;;;4955634;28;20584;-84
2023/07/22 07:39:03;;;;;;;8.33;6.93;;;25.70;99.90;;;;;;4975335;28;20466;-84
2023/07/22 07:41:28;;;;;;;11.10;7.57;;;25.60;99.90;;;;;;4976141;28;20243;-84
2023/07/22 07:43:54;;;;;;;9.80;7.60;;;25.10;99.90;;;;;;4971616;28;21425;-84
2023/07/22 07:46:28;;;;;;;8.93;6.80;;;24.70;99.90;;;;;;4976768;28;20279;-84
2023/07/22 07:48:57;;;;;;;10.63;6.43;;;24.40;99.90;;;;;;4960591;28;20595;-84
2023/07/22 07:51:42;;;;;;;8.27;6.87;;;24.80;99.90;;;;;;4959315;28;20451;-84
2023/07/22 07:54:31;;;;;;;15.20;6.63;;;25.10;99.90;;;;;;4951868;28;20568;-84
2023/07/22 07:57:06;;;;;;;9.53;5.37;;;25.90;99.90;;;;;;4971301;28;20957;-84
2023/07/22 07:59:31;;;;;;;10.63;6.53;;;26.00;99.90;;;;;;4974617;28;21867;-84
2023/07/22 08:02:10;;;;;;;10.03;5.60;;;27.00;99.90;;;;;;4974087;28;20467;-85
2023/07/22 08:04:38;;;;;;;8.93;6.43;;;29.00;99.90;;;;;;4975353;28;20662;-84
2023/07/22 08:07:06;;;;;;;6.80;5.70;;;30.50;99.90;;;;;;4971306;28;20467;-84
2023/07/22 08:09:34;;;;;;;13.13;6.87;;;31.80;99.90;;;;;;4958969;28;20467;-83
2023/07/22 08:12:01;;;;;;;7.37;5.87;;;33.20;99.90;;;;;;4976579;28;20522;-84
2023/07/22 08:14:26;;;;;;;6.07;5.47;;;33.90;99.90;;;;;;4977013;28;20430;-84
2023/07/22 08:16:52;;;;;;;8.30;5.57;;;34.20;99.90;;;;;;4975199;28;20447;-85
2023/07/22 08:19:18;;;;;;;5.53;4.77;;;33.90;99.90;;;;;;4971960;28;20209;-84
2023/07/22 08:21:43;;;;;;;6.13;4.87;;;34.20;99.90;;;;;;4974886;28;20458;-84
2023/07/22 08:24:09;;;;;;;5.43;4.17;;;34.10;99.90;;;;;;4954105;28;20199;-84
2023/07/22 08:26:35;;;;;;;4.33;3.93;;;34.10;99.90;;;;;;4968240;28;20211;-84
2023/07/22 08:29:00;;;;;;;5.53;3.90;;;33.60;99.90;;;;;;4972282;28;20643;-84
2023/07/22 08:31:25;;;;;;;9.03;3.90;;;32.80;99.90;;;;;;4975080;28;20215;-84
2023/07/22 08:33:51;;;;;;;4.27;3.43;;;32.20;99.90;;;;;;4977362;28;20188;-84
2023/07/22 08:36:17;;;;;;;9.20;4.27;;;32.80;99.90;;;;;;4955565;28;20701;-83
2023/07/22 08:38:42;;;;;;;4.70;3.07;;;33.80;99.90;;;;;;4970958;28;20566;-84
2023/07/22 08:41:09;;;;;;;4.57;3.50;;;34.60;99.90;;;;;;4955149;28;20212;-84
2023/07/22 08:43:37;;;;;;;5.10;3.20;;;34.40;99.90;;;;;;4957682;28;20244;-84
2023/07/22 08:46:06;;;;;;;4.50;3.93;;;34.20;99.90;;;;;;4973786;28;20530;-84
2023/07/22 08:48:34;;;;;;;6.20;4.07;;;34.00;99.90;;;;;;4975217;28;20424;-84
2023/07/22 08:51:09;;;;;;;5.10;3.47;;;33.30;99.90;;;;;;4976797;28;20952;-84
2023/07/22 08:53:36;;;;;;;5.10;3.63;;;33.10;99.90;;;;;;4954374;28;20444;-83
2023/07/22 08:56:02;;;;;;;7.37;3.70;;;33.70;99.90;;;;;;4969507;28;20462;-84
2023/07/22 08:58:29;;;;;;;4.37;3.50;;;34.20;99.90;;;;;;4975252;28;20466;-84
2023/07/22 09:00:58;;;;;;;5.57;3.97;;;32.40;99.90;;;;;;4971750;28;20459;-84
2023/07/22 09:03:26;;;;;;;6.23;4.20;;;31.00;99.90;;;;;;4959015;28;20459;-84
2023/07/22 09:05:53;;;;;;;4.90;3.80;;;30.50;99.90;;;;;;4957153;28;20950;-83
2023/07/22 09:08:19;;;;;;;7.70;3.60;;;30.70;99.90;;;;;;4974369;28;20435;-83
2023/07/22 09:10:47;;;;;;;4.87;3.40;;;31.10;99.90;;;;;;4950083;28;20451;-84
2023/07/22 09:13:19;;;;;;;5.67;4.20;;;31.40;99.90;;;;;;4948229;28;20192;-84
2023/07/22 09:16:05;;;;;;;5.40;3.90;;;32.00;99.90;;;;;;4958389;28;20438;-84
2023/07/22 09:18:39;;;;;;;3.27;2.97;;;33.50;99.90;;;;;;4958620;28;21345;-83
2023/07/22 09:21:04;;;;;;;4.63;3.47;;;34.20;99.90;;;;;;4956289;28;20475;-84
2023/07/22 09:23:48;;;;;;;5.07;3.50;;;34.60;99.90;;;;;;4974414;28;21470;-84
2023/07/22 09:26:48;;;;;;;3.40;2.60;;;34.20;99.90;;;;;;4969285;28;20673;-84
2023/07/22 09:30:04;;;;;;;4.00;3.60;;;34.20;99.90;;;;;;4954890;28;20459;-84
2023/07/22 09:32:48;;;;;;;3.47;2.80;;;34.00;99.90;;;;;;4963856;28;20501;-84
2023/07/22 09:35:20;;;;;;;3.90;2.77;;;34.30;99.90;;;;;;4946688;28;20828;-84
2023/07/22 09:37:49;;;;;;;4.07;2.97;;;33.80;99.90;;;;;;4971679;28;20843;-84
2023/07/22 09:40:21;;;;;;;3.90;2.90;;;32.90;99.90;;;;;;4973709;28;20475;-84
2023/07/22 09:43:06;;;;;;;5.23;3.03;;;32.80;99.90;;;;;;4959738;28;20431;-84
2023/07/22 09:45:37;;;;;;;4.90;2.90;;;33.10;99.90;;;;;;4969996;28;20439;-84
2023/07/22 09:48:12;;;;;;;3.77;2.70;;;33.80;99.90;;;;;;4975884;28;20479;-84
2023/07/22 09:50:43;;;;;;;3.67;2.83;;;33.60;99.90;;;;;;4971709;28;20443;-83
2023/07/22 09:53:36;;;;;;;3.03;2.43;;;33.20;99.90;;;;;;4971616;28;20451;-84
2023/07/22 09:56:05;;;;;;;5.80;2.70;;;32.60;99.90;;;;;;4957142;28;20451;-84
2023/07/22 10:02:00;;;;;;;3.83;2.30;;;33.00;99.90;;;;;;4963480;28;20424;-84
2023/07/22 10:05:21;;;;;;;2.87;2.57;;;32.90;99.90;;;;;;4954653;28;20502;-84
2023/07/22 10:08:20;;;;;;;6.40;2.70;;;32.60;99.90;;;;;;4947586;28;20857;-84
2023/07/22 10:11:44;;;;;;;4.50;2.47;;;33.10;99.90;;;;;;4953297;28;20446;-84
2023/07/22 10:18:03;;;;;;;3.33;2.50;;;32.40;99.90;;;;;;4801018;29;20466;-85
2023/07/22 10:20:54;;;;;;;;;;;;;;;;;;;;;
2023/07/22 10:24:11;;;;;;;4.10;3.03;;;31.80;99.90;;;;;;4973833;28;20894;-84
2023/07/22 10:27:34;;;;;;;;;;;;;;;;;;;;;
2023/07/22 10:30:13;;;;;;;3.13;2.27;;;32.60;99.90;;;;;;4962584;28;20961;-84
2023/07/22 10:32:48;;;;;;;4.13;2.70;;;33.00;99.90;;;;;;4975804;28;20433;-82
2023/07/22 10:35:30;;;;;;;3.87;2.50;;;33.60;99.90;;;;;;4967133;28;20428;-82
2023/07/22 10:38:06;;;;;;;4.13;2.20;;;34.50;99.90;;;;;;4980439;28;20464;-82
2023/07/22 10:40:32;;;;;;;3.47;2.47;;;35.40;99.90;;;;;;4971092;28;20447;-82
2023/07/22 10:43:03;;;;;;;3.60;2.50;;;36.10;99.90;;;;;;4973405;28;20975;-83
2023/07/22 10:45:34;;;;;;;5.20;2.70;;;36.00;99.90;;;;;;4979668;28;20184;-82
2023/07/22 10:48:07;;;;;;;4.90;3.20;;;35.90;99.90;;;;;;4987311;28;20447;-83
2023/07/22 10:50:51;;;;;;;5.00;2.77;;;36.10;99.90;;;;;;4970883;28;20446;-82
2023/07/22 10:53:26;;;;;;;2.63;2.43;;;36.00;99.90;;;;;;4984518;28;21206;-82
2023/07/22 10:56:12;;;;;;;4.23;2.67;;;35.90;99.90;;;;;;4977437;28;20811;-82
2023/07/22 10:58:44;;;;;;;2.90;2.60;;;36.10;99.90;;;;;;4990035;28;21030;-83
2023/07/22 11:01:27;;;;;;;4.57;2.63;;;35.80;99.90;;;;;;4984742;28;20430;-82
2023/07/22 11:04:07;;;;;;;3.90;3.03;;;35.30;99.90;;;;;;4975270;28;21513;-81
2023/07/22 11:06:34;;;;;;;3.70;3.07;;;35.70;99.90;;;;;;4985572;28;21116;-82
2023/07/22 11:09:00;;;;;;;3.57;3.27;;;35.00;99.90;;;;;;4990386;28;20963;-81
2023/07/22 11:11:40;;;;;;;4.20;2.70;;;34.60;99.90;;;;;;4964294;28;20434;-82
2023/07/22 11:14:23;;;;;;;5.60;3.67;;;35.20;99.90;;;;;;4994301;28;20188;-81
2023/07/22 11:16:49;;;;;;;3.73;3.37;;;36.00;99.90;;;;;;4964224;28;21660;-82
2023/07/22 11:19:16;;;;;;;6.17;2.97;;;37.20;99.90;;;;;;4983393;28;20460;-82
2023/07/22 11:21:42;;;;;;;5.77;3.40;;;37.70;99.90;;;;;;4977037;28;20419;-81
2023/07/22 11:24:08;;;;;;;3.60;2.63;;;37.80;99.90;;;;;;4962828;28;20502;-82
2023/07/22 11:26:34;;;;;;;3.53;2.90;;;37.50;99.90;;;;;;4978116;28;20896;-81
2023/07/22 11:29:01;;;;;;;2.67;2.47;;;37.40;99.90;;;;;;4978165;28;20180;-82
2023/07/22 11:31:42;;;;;;;4.47;2.87;;;37.70;99.90;;;;;;4965059;28;20431;-81
2023/07/22 11:34:18;;;;;;;4.87;2.77;;;38.00;99.90;;;;;;4968723;28;20435;-82
2023/07/22 11:36:44;;;;;;;3.67;2.67;;;38.10;99.90;;;;;;4973610;28;21443;-82
2023/07/22 11:39:18;;;;;;;2.73;2.47;;;37.10;99.90;;;;;;4972098;28;20521;-83
2023/07/22 11:41:45;;;;;;;2.80;2.50;;;35.90;99.90;;;;;;4978746;28;20440;-81
2023/07/22 11:44:15;;;;;;;4.33;2.53;;;35.80;99.90;;;;;;4988943;28;20430;-82
2023/07/22 11:46:59;;;;;;;2.50;2.10;;;35.80;99.90;;;;;;4984426;28;20454;-81
2023/07/22 11:49:36;;;;;;;3.70;2.30;;;36.20;99.90;;;;;;4982753;28;20450;-82
2023/07/22 11:52:07;;;;;;;3.00;1.80;;;35.10;99.90;;;;;;4966226;28;20442;-81
2023/07/22 11:54:33;;;;;;;3.27;1.83;;;34.90;99.90;;;;;;4983508;28;20450;-82
2023/07/22 11:57:22;;;;;;;4.07;2.47;;;35.20;99.90;;;;;;4978609;28;20523;-82
2023/07/22 11:59:50;;;;;;;4.00;2.10;;;35.40;99.90;;;;;;4974707;28;20470;-81
2023/07/22 12:02:23;;;;;;;6.70;2.20;;;35.60;99.90;;;;;;4984385;28;20439;-82
2023/07/22 12:04:53;;;;;;;4.33;2.20;;;35.70;99.90;;;;;;4986511;28;20426;-82
2023/07/22 12:07:26;;;;;;;2.77;2.30;;;35.60;99.90;;;;;;4962735;28;22378;-85
2023/07/22 12:09:54;;;;;;;2.67;1.90;;;35.10;99.90;;;;;;4968378;28;20554;-83
2023/07/22 12:12:19;;;;;;;3.70;2.37;;;35.50;99.90;;;;;;4961456;28;20443;-82
2023/07/22 12:14:45;;;;;;;3.13;2.60;;;35.50;99.90;;;;;;4974611;28;20446;-81
2023/07/22 12:17:10;;;;;;;2.90;2.47;;;35.00;99.90;;;;;;4981498;28;20215;-82
2023/07/22 12:19:36;;;;;;;3.00;2.70;;;35.40;99.90;;;;;;4982392;28;20200;-82
2023/07/22 12:22:02;;;;;;;3.00;2.43;;;35.00;99.90;;;;;;4975511;28;20663;-81
2023/07/22 12:24:28;;;;;;;2.33;2.00;;;35.10;99.90;;;;;;4977813;28;20183;-81
2023/07/22 12:26:54;;;;;;;3.00;2.50;;;35.10;99.90;;;;;;4939386;28;1052236;-82
2023/07/22 12:29:20;;;;;;;6.47;2.50;;;35.20;99.90;;;;;;4982037;28;20210;-84
2023/07/22 12:31:45;;;;;;;3.37;2.87;;;35.30;99.90;;;;;;4983288;28;20191;-82
2023/07/22 12:34:11;;;;;;;4.53;2.73;;;35.40;99.90;;;;;;4967839;28;20547;-80
2023/07/22 12:36:36;;;;;;;2.73;2.47;;;35.40;99.90;;;;;;4962889;28;20215;-81
2023/07/22 12:39:03;;;;;;;3.47;2.80;;;35.40;99.90;;;;;;4981867;28;20310;-81
2023/07/22 12:41:28;;;;;;;3.17;2.83;;;35.30;99.90;;;;;;4973012;28;20211;-82
2023/07/22 12:43:53;;;;;;;6.97;2.80;;;35.10;99.90;;;;;;4959688;28;20446;-82
2023/07/22 12:46:19;;;;;;;4.90;2.80;;;35.10;99.90;;;;;;4972648;28;20214;-84
2023/07/22 12:48:44;;;;;;;3.73;3.13;;;34.70;99.90;;;;;;4969977;28;20753;-81
2023/07/22 12:51:10;;;;;;;3.40;3.10;;;34.10;99.90;;;;;;4967350;28;20179;-81
2023/07/22 12:53:36;;;;;;;3.20;2.80;;;33.90;99.90;;;;;;4968233;28;20191;-83
2023/07/22 12:56:05;;;;;;;4.23;2.63;;;33.90;99.90;;;;;;4972521;28;20214;-82
2023/07/22 12:58:31;;;;;;;3.37;2.60;;;33.80;99.90;;;;;;4967349;28;20212;-81
2023/07/22 13:00:57;;;;;;;4.50;2.90;;;33.70;99.90;;;;;;4979229;28;20462;-82
2023/07/22 13:03:22;;;;;;;4.93;2.70;;;33.30;99.90;;;;;;4982306;28;20214;-82
2023/07/22 13:05:48;;;;;;;3.77;2.87;;;33.20;99.90;;;;;;4982975;28;20188;-81
2023/07/22 13:08:13;;;;;;;2.63;2.43;;;32.90;99.90;;;;;;4980758;28;20195;-82
2023/07/22 13:10:43;;;;;;;3.30;3.00;;;32.60;99.90;;;;;;4966030;28;20550;-82
2023/07/22 13:13:09;;;;;;;4.87;2.80;;;31.90;99.90;;;;;;4965738;28;20180;-82
2023/07/22 13:15:34;;;;;;;4.90;3.57;;;32.10;99.90;;;;;;4978652;28;20452;-83
2023/07/22 13:18:00;;;;;;;4.63;3.13;;;32.10;99.90;;;;;;4971417;28;20207;-82
2023/07/22 13:20:25;;;;;;;4.50;2.80;;;31.70;99.90;;;;;;4963960;28;20219;-82
2023/07/22 13:22:51;;;;;;;3.93;2.93;;;31.90;99.90;;;;;;4962309;28;20295;-79
2023/07/22 13:25:16;;;;;;;3.80;2.83;;;31.80;99.90;;;;;;4982562;28;20571;-81
2023/07/22 13:27:42;;;;;;;8.43;3.00;;;31.50;99.90;;;;;;4968082;28;20267;-81
2023/07/22 13:30:08;;;;;;;7.37;3.27;;;31.80;99.90;;;;;;4969426;28;20196;-81
2023/07/22 13:32:33;;;;;;;3.50;3.17;;;31.70;99.90;;;;;;4979201;28;20684;-80
2023/07/22 13:34:59;;;;;;;4.33;3.10;;;31.70;99.90;;;;;;4974623;28;20529;-82
2023/07/22 13:37:25;;;;;;;3.90;2.63;;;31.90;99.90;;;;;;4977131;28;20204;-82
2023/07/22 13:39:50;;;;;;;6.33;3.33;;;32.20;99.90;;;;;;4966981;28;20685;-82
2023/07/22 13:42:16;;;;;;;3.93;2.60;;;31.70;99.90;;;;;;4984368;28;20796;-81
2023/07/22 13:44:41;;;;;;;5.40;3.20;;;31.10;99.90;;;;;;4977689;28;20192;-81
2023/07/22 13:47:07;;;;;;;4.70;3.43;;;31.10;99.90;;;;;;4981380;28;20215;-82
2023/07/22 13:49:32;;;;;;;4.90;2.80;;;31.20;99.90;;;;;;4986986;28;20732;-82
2023/07/22 13:51:58;;;;;;;4.00;2.97;;;31.20;99.90;;;;;;4984056;28;20251;-82
2023/07/22 13:54:23;;;;;;;4.90;2.60;;;31.00;99.90;;;;;;4989988;28;20188;-82
2023/07/22 13:56:49;;;;;;;3.43;2.60;;;30.70;99.90;;;;;;4990974;28;20839;-82
2023/07/22 13:59:14;;;;;;;2.70;2.27;;;30.80;99.90;;;;;;4990260;28;20261;-81
2023/07/22 14:01:40;;;;;;;3.13;2.33;;;31.00;99.90;;;;;;5000345;28;20179;-81
2023/07/22 14:04:06;;;;;;;4.30;2.70;;;31.10;99.90;;;;;;4994003;28;20653;-81
2023/07/22 14:06:32;;;;;;;3.70;2.63;;;31.30;99.90;;;;;;4968678;28;20220;-80
2023/07/22 14:08:58;;;;;;;4.30;2.77;;;30.90;99.90;;;;;;4990541;28;20190;-80
2023/07/22 14:11:23;;;;;;;4.27;2.37;;;30.50;99.90;;;;;;4987375;28;20431;-80
2023/07/22 14:13:51;;;;;;;2.97;2.40;;;30.40;99.90;;;;;;4988928;28;20188;-80
2023/07/22 14:16:17;;;;;;;5.73;3.20;;;29.90;99.90;;;;;;4974731;28;20207;-80
2023/07/22 14:18:45;;;;;;;3.80;2.17;;;29.50;99.90;;;;;;4990488;28;20465;-81
2023/07/22 14:21:11;;;;;;;5.13;3.00;;;29.20;99.90;;;;;;4978511;28;20267;-81
2023/07/22 14:23:37;;;;;;;3.50;2.37;;;29.00;99.90;;;;;;4971774;28;20474;-81
2023/07/22 14:26:03;;;;;;;7.30;2.80;;;28.70;99.90;;;;;;4990238;28;20204;-82
2023/07/22 14:28:28;;;;;;;8.80;2.30;;;28.60;99.90;;;;;;4983617;28;20447;-82
2023/07/22 14:30:54;;;;;;;3.63;1.90;;;28.70;99.90;;;;;;4996232;28;20278;-81
2023/07/22 14:33:19;;;;;;;2.77;2.07;;;29.00;99.90;;;;;;4994112;28;20199;-82
2023/07/22 14:35:45;;;;;;;3.53;2.50;;;28.80;99.90;;;;;;4993513;28;20196;-81
2023/07/22 14:38:11;;;;;;;4.93;2.00;;;28.60;99.90;;;;;;4985466;28;20430;-81
2023/07/22 14:40:36;;;;;;;2.67;2.30;;;28.60;99.90;;;;;;4985592;28;20239;-81
2023/07/22 14:43:02;;;;;;;4.00;2.37;;;28.50;99.90;;;;;;4989480;28;20438;-81
2023/07/22 14:45:28;;;;;;;3.03;1.80;;;28.50;99.90;;;;;;4987078;28;20273;-81
2023/07/22 14:47:53;;;;;;;6.97;2.40;;;28.30;99.90;;;;;;4972522;28;20204;-81
2023/07/22 14:50:19;;;;;;;3.50;2.10;;;28.10;99.90;;;;;;4991954;28;20246;-81
2023/07/22 14:52:45;;;;;;;3.63;2.00;;;28.00;99.90;;;;;;4977826;28;20191;-81
2023/07/22 14:55:10;;;;;;;3.27;2.20;;;27.80;99.90;;;;;;4994712;28;20200;-82
2023/07/22 14:57:36;;;;;;;3.10;2.43;;;27.70;99.90;;;;;;4988368;28;20549;-81
2023/07/22 15:00:02;;;;;;;5.10;1.90;;;27.70;99.90;;;;;;4986527;28;20216;-80
2023/07/22 15:02:28;;;;;;;2.57;2.00;;;27.80;99.90;;;;;;4992053;28;20180;-80
2023/07/22 15:04:53;;;;;;;2.93;2.13;;;27.80;99.90;;;;;;4981004;28;20474;-80
2023/07/22 15:07:19;;;;;;;2.60;2.30;;;27.60;99.90;;;;;;4996531;28;20215;-81
2023/07/22 15:09:44;;;;;;;3.50;1.97;;;27.60;99.90;;;;;;4998747;28;20190;-80
2023/07/22 15:12:10;;;;;;;2.53;2.00;;;27.60;99.90;;;;;;4989995;28;20196;-81
2023/07/22 15:14:37;;;;;;;3.97;2.33;;;27.50;99.90;;;;;;4980565;28;20553;-80
2023/07/22 15:17:03;;;;;;;4.00;2.57;;;27.50;99.90;;;;;;4973988;28;20311;-80
2023/07/22 15:19:29;;;;;;;4.37;2.73;;;27.50;99.90;;;;;;4990995;28;20517;-81
2023/07/22 15:21:54;;;;;;;3.10;2.30;;;27.50;99.90;;;;;;4993068;28;20738;-81
2023/07/22 15:24:20;;;;;;;3.90;2.30;;;27.40;99.90;;;;;;4992732;28;20441;-80
2023/07/22 15:26:45;;;;;;;3.40;2.97;;;27.40;99.90;;;;;;4988077;28;20243;-81
2023/07/22 15:29:11;;;;;;;7.57;2.63;;;27.50;99.90;;;;;;4990771;28;20199;-81
2023/07/22 15:31:36;;;;;;;3.70;2.20;;;27.50;99.90;;;;;;4984833;28;20199;-81
2023/07/22 15:34:05;;;;;;;2.50;2.27;;;27.60;99.90;;;;;;4988766;28;20191;-81
2023/07/22 15:36:30;;;;;;;5.10;2.73;;;27.60;99.90;;;;;;4989428;28;20692;-81
2023/07/22 15:38:56;;;;;;;3.47;2.53;;;27.70;99.90;;;;;;4988764;28;20477;-81
2023/07/22 15:41:22;;;;;;;3.87;2.70;;;27.80;99.90;;;;;;4982750;28;20543;-81
2023/07/22 15:43:47;;;;;;;3.60;2.83;;;27.80;99.90;;;;;;4987806;28;20187;-81
2023/07/22 15:46:13;;;;;;;5.00;3.00;;;27.70;99.90;;;;;;4981104;28;20612;-81
2023/07/22 15:48:38;;;;;;;6.60;4.00;;;27.60;99.90;;;;;;4991335;28;20292;-81
2023/07/22 15:51:04;;;;;;;12.80;3.47;;;27.50;99.90;;;;;;4992212;28;20203;-82
2023/07/22 15:53:29;;;;;;;5.00;2.67;;;27.40;99.90;;;;;;4987815;28;20180;-82
2023/07/22 15:55:55;;;;;;;5.00;4.07;;;27.30;99.90;;;;;;4984107;28;20759;-82
2023/07/22 15:58:21;;;;;;;4.43;3.47;;;27.30;99.90;;;;;;4984975;28;20187;-82
2023/07/22 16:00:47;;;;;;;4.23;3.50;;;27.20;99.90;;;;;;4963796;28;20184;-81
2023/07/22 16:03:14;;;;;;;6.67;4.00;;;27.10;99.90;;;;;;4990602;28;20732;-81
2023/07/22 16:05:42;;;;;;;9.00;4.00;;;27.00;99.90;;;;;;4991544;28;20923;-81
2023/07/22 16:08:08;;;;;;;5.33;3.90;;;26.80;99.90;;;;;;4997511;28;20485;-81
2023/07/22 16:10:33;;;;;;;3.87;3.33;;;26.90;99.90;;;;;;4994127;28;20422;-82
2023/07/22 16:12:59;;;;;;;5.77;3.60;;;26.80;99.90;;;;;;4997367;28;20892;-81
2023/07/22 16:15:24;;;;;;;3.43;3.10;;;26.70;99.90;;;;;;4979729;28;20192;-82
2023/07/22 16:17:50;;;;;;;8.03;3.30;;;26.60;99.90;;;;;;4992075;28;20661;-82
2023/07/22 16:20:17;;;;;;;3.97;3.53;;;26.50;99.90;;;;;;4985183;28;20211;-81
2023/07/22 16:22:43;;;;;;;5.50;2.90;;;26.40;99.90;;;;;;4984458;28;20267;-82
2023/07/22 16:25:09;;;;;;;6.70;3.67;;;26.30;99.90;;;;;;4976324;28;20937;-81
2023/07/22 16:27:35;;;;;;;5.67;3.53;;;26.20;99.90;;;;;;4967388;28;20230;-80
2023/07/22 16:30:00;;;;;;;5.17;3.10;;;26.20;99.90;;;;;;4972166;28;20522;-80
2023/07/22 16:32:26;;;;;;;4.90;3.13;;;26.10;99.90;;;;;;4973672;28;20207;-81
2023/07/22 16:34:51;;;;;;;3.00;2.70;;;26.00;99.90;;;;;;4977773;28;20198;-81
2023/07/22 16:37:17;;;;;;;3.30;2.53;;;26.00;99.90;;;;;;4972608;28;20212;-82
2023/07/22 16:39:43;;;;;;;6.73;3.30;;;25.90;99.90;;;;;;4990673;28;20270;-82
2023/07/22 16:42:08;;;;;;;4.87;2.73;;;25.90;99.90;;;;;;4987819;28;20443;-81
2023/07/22 16:44:34;;;;;;;10.70;2.90;;;25.90;99.90;;;;;;4983072;28;20219;-82
2023/07/22 16:47:00;;;;;;;4.20;2.77;;;26.00;99.90;;;;;;4973462;28;20701;-82
2023/07/22 16:49:28;;;;;;;4.63;2.97;;;25.90;99.90;;;;;;4970468;28;20229;-82
2023/07/22 16:51:54;;;;;;;4.80;2.63;;;25.90;99.90;;;;;;4991976;28;20195;-81
2023/07/22 16:54:20;;;;;;;6.53;2.93;;;25.90;99.90;;;;;;4984170;28;20434;-81
2023/07/22 16:56:45;;;;;;;5.20;3.13;;;25.90;99.90;;;;;;4965249;28;20207;-82
2023/07/22 16:59:11;;;;;;;11.17;2.57;;;25.80;99.90;;;;;;4991611;28;20211;-82
2023/07/22 17:01:36;;;;;;;4.20;2.83;;;25.80;99.90;;;;;;4977958;28;20271;-81
2023/07/22 17:04:02;;;;;;;4.60;3.23;;;25.70;99.90;;;;;;4995005;28;20196;-82
2023/07/22 17:06:29;;;;;;;5.13;2.80;;;25.60;99.90;;;;;;4983972;28;20220;-80
2023/07/22 17:08:55;;;;;;;4.73;3.00;;;25.50;99.90;;;;;;4973151;28;20191;-82
2023/07/22 17:11:20;;;;;;;6.37;3.60;;;25.30;99.90;;;;;;4964352;28;20864;-82
2023/07/22 17:13:46;;;;;;;12.70;3.77;;;25.30;99.90;;;;;;4968364;28;20200;-81
2023/07/22 17:16:11;;;;;;;6.60;3.35;;;25.20;99.90;;;;;;4963056;28;20434;-81
2023/07/22 17:18:38;;;;;;;6.47;3.07;;;25.20;99.90;;;;;;4979347;28;20693;-81
2023/07/22 17:21:04;;;;;;;3.63;2.83;;;25.10;99.90;;;;;;4972709;28;20211;-82
2023/07/22 17:23:29;;;;;;;4.40;2.73;;;25.00;99.90;;;;;;4986270;28;20614;-83
2023/07/22 17:25:54;;;;;;;5.20;3.00;;;25.00;99.90;;;;;;4970632;28;20210;-83
2023/07/22 17:28:20;;;;;;;3.80;3.10;;;24.80;99.90;;;;;;4991216;28;20196;-82
2023/07/22 17:30:45;;;;;;;4.00;2.70;;;24.70;99.90;;;;;;4988695;28;20199;-83
2023/07/22 17:33:11;;;;;;;4.43;2.50;;;24.60;99.90;;;;;;4983993;28;20199;-83
2023/07/22 17:35:39;;;;;;;5.17;2.87;;;24.50;99.90;;;;;;4975014;28;20212;-82
2023/07/22 17:38:04;;;;;;;5.20;3.13;;;24.50;99.90;;;;;;4997293;28;20685;-83
2023/07/22 17:40:31;;;;;;;5.73;2.97;;;24.40;99.90;;;;;;4995458;28;20509;-83
2023/07/22 17:42:56;;;;;;;6.30;2.77;;;24.40;99.90;;;;;;4977113;28;20202;-83
2023/07/22 17:45:23;;;;;;;7.03;3.00;;;24.30;99.90;;;;;;4985656;28;20465;-83
2023/07/22 17:47:49;;;;;;;4.40;2.93;;;24.20;99.90;;;;;;4990148;28;20693;-83
2023/07/22 17:50:14;;;;;;;7.23;3.67;;;24.20;99.90;;;;;;4990940;28;20491;-84
2023/07/22 17:52:40;;;;;;;6.07;2.93;;;24.20;99.90;;;;;;4968613;28;20195;-83
2023/07/22 17:55:07;;;;;;;5.23;2.90;;;24.20;99.90;;;;;;4989288;28;20279;-83
2023/07/22 17:57:32;;;;;;;4.03;2.77;;;24.20;99.90;;;;;;4975073;28;20219;-83
2023/07/22 17:59:58;;;;;;;8.10;2.93;;;24.10;99.90;;;;;;4975798;28;20476;-83
2023/07/22 18:02:23;;;;;;;3.80;2.87;;;24.00;99.90;;;;;;4984510;28;20679;-83
2023/07/22 18:04:49;;;;;;;5.37;2.80;;;24.00;99.90;;;;;;4992448;28;20186;-82
2023/07/22 18:07:14;;;;;;;5.27;3.40;;;24.00;99.90;;;;;;4978789;28;20218;-83
2023/07/22 18:09:40;;;;;;;9.70;3.30;;;24.00;99.90;;;;;;4988312;28;20256;-83
2023/07/22 18:12:06;;;;;;;4.03;2.73;;;23.90;99.90;;;;;;4980235;28;20205;-83
2023/07/22 18:14:33;;;;;;;6.13;2.67;;;23.90;99.90;;;;;;4984968;28;20286;-83
2023/07/22 18:16:58;;;;;;;4.03;2.40;;;23.80;99.90;;;;;;4999397;28;20436;-83
2023/07/22 18:19:24;;;;;;;5.93;2.97;;;23.80;99.90;;;;;;4983654;28;20470;-83